Time;durP1;ratioP1;P1;durP2;ratioP2;P2;SDS_P1;SDS_P2;PMS_P1;PMS_P2;Temp;Humidity;BMP_temperature;BMP_pressure;BME280_temperature;BME280_humidity;BME280_pressure;Samples;Min_cycle;Max_cycle;Signal;HPM_P1;HPM_P2
2022/07/07 00:00:17;;;;;;;30.67;21.83;;;;;;;14.50;100.00;101618.63;2071697;28;23441;-64
2022/07/07 00:01:19;;;;;;;32.13;22.95;;;;;;;14.51;100.00;101624.88;2072142;28;20173;-65
2022/07/07 00:02:21;;;;;;;33.05;23.42;;;;;;;14.50;100.00;101621.31;2071614;28;27617;-66
2022/07/07 00:03:23;;;;;;;32.50;22.80;;;;;;;14.51;100.00;101617.69;2071500;28;28150;-66
2022/07/07 00:04:25;;;;;;;33.50;23.55;;;;;;;14.51;100.00;101606.03;2070986;28;32462;-66
2022/07/07 00:05:27;;;;;;;36.42;23.30;;;;;;;14.50;100.00;101618.63;2071080;28;32770;-65
2022/07/07 00:06:33;;;;;;;32.08;23.05;;;;;;;14.52;100.00;101605.13;2071166;28;40307;-66
2022/07/07 00:07:35;;;;;;;32.03;23.00;;;;;;;14.52;100.00;101610.50;2072397;28;20026;-66
2022/07/07 00:08:37;;;;;;;34.38;23.83;;;;;;;14.55;100.00;101609.53;2070498;28;34988;-66
2022/07/07 00:09:39;;;;;;;34.05;24.20;;;;;;;14.52;100.00;101605.13;2062417;28;20132;-66
2022/07/07 00:10:40;;;;;;;30.35;22.13;;;;;;;14.54;100.00;101618.53;2063154;28;22627;-65
2022/07/07 00:11:42;;;;;;;30.80;23.30;;;;;;;14.53;100.00;101606.88;2071161;28;38863;-66
2022/07/07 00:12:44;;;;;;;30.40;21.83;;;;;;;14.54;100.00;101602.38;2071823;28;20043;-66
2022/07/07 00:13:46;;;;;;;33.67;22.73;;;;;;;14.54;100.00;101607.78;2071843;28;25911;-66
2022/07/07 00:14:48;;;;;;;35.65;24.23;;;;;;;14.55;100.00;101605.00;2071214;28;35290;-66
2022/07/07 00:15:49;;;;;;;34.58;24.05;;;;;;;14.55;100.00;101612.22;2071251;28;20116;-66
2022/07/07 00:16:51;;;;;;;33.33;23.92;;;;;;;14.55;100.00;101620.28;2071459;28;26877;-67
2022/07/07 00:17:53;;;;;;;34.72;23.02;;;;;;;14.54;100.00;101600.56;2071186;28;32913;-66
2022/07/07 00:18:55;;;;;;;32.22;23.73;;;;;;;14.56;100.00;101600.53;2063261;28;20043;-67
2022/07/07 00:19:59;;;;;;;29.35;23.33;;;;;;;14.56;100.00;101601.41;2062656;28;25723;-66
2022/07/07 00:21:01;;;;;;;35.58;23.70;;;;;;;14.56;100.00;101597.81;2071455;28;20150;-66
2022/07/07 00:22:03;;;;;;;31.90;23.10;;;;;;;14.57;100.00;101604.97;2071780;28;24769;-66
2022/07/07 00:23:05;;;;;;;33.70;23.15;;;;;;;14.58;100.00;101601.38;2072081;28;20039;-67
2022/07/07 00:24:07;;;;;;;38.03;24.02;;;;;;;14.58;100.00;101598.69;2072014;28;20109;-67
2022/07/07 00:25:14;;;;;;;35.25;23.70;;;;;;;14.59;100.00;101600.44;2071010;28;22208;-67
2022/07/07 00:26:15;;;;;;;30.08;23.23;;;;;;;14.60;100.00;101588.75;2071954;28;20039;-67
2022/07/07 00:27:17;;;;;;;33.47;22.63;;;;;;;14.60;100.00;101596.84;2071372;28;34453;-66
2022/07/07 00:28:19;;;;;;;32.88;24.08;;;;;;;14.63;100.00;101588.66;2063059;28;20043;-67
2022/07/07 00:29:21;;;;;;;31.70;23.38;;;;;;;14.63;100.00;101588.66;2062745;28;25637;-65
2022/07/07 00:30:23;;;;;;;34.88;23.88;;;;;;;14.64;100.00;101585.03;2071535;28;27305;-67
2022/07/07 00:31:26;;;;;;;30.88;23.60;;;;;;;14.65;100.00;101592.19;2070567;28;20760;-67
2022/07/07 00:32:28;;;;;;;31.13;22.92;;;;;;;14.64;100.00;101585.94;2071225;28;24152;-67
2022/07/07 00:33:32;;;;;;;30.92;22.50;;;;;;;14.67;100.00;101588.50;2072055;28;27474;-67
2022/07/07 00:34:34;;;;;;;34.42;22.70;;;;;;;14.67;100.00;101580.44;2071493;28;20035;-67
2022/07/07 00:35:38;;;;;;;35.90;23.27;;;;;;;14.66;100.00;101586.75;2071787;28;20160;-66
2022/07/07 00:36:42;;;;;;;31.00;22.80;;;;;;;14.69;100.00;101585.78;2070603;28;29628;-66
2022/07/07 00:37:45;;;;;;;29.90;22.63;;;;;;;14.68;100.00;101578.63;2071661;28;20848;-67
2022/07/07 00:38:47;;;;;;;35.00;23.23;;;;;;;14.69;100.00;101580.38;2070874;28;25859;-67
2022/07/07 00:39:49;;;;;;;31.77;21.27;;;;;;;14.68;100.00;101571.44;2070672;28;27201;-67
2022/07/07 00:40:54;;;;;;;31.40;22.42;;;;;;;14.68;100.00;101573.25;2072040;28;20935;-66
2022/07/07 00:41:55;;;;;;;30.85;22.58;;;;;;;14.69;100.00;101566.91;2071376;28;26897;-67
2022/07/07 00:42:57;;;;;;;31.90;21.77;;;;;;;14.70;100.00;101566.00;2071668;28;20660;-66
2022/07/07 00:43:59;;;;;;;33.45;22.95;;;;;;;14.69;100.00;101561.50;2070746;28;25028;-67
2022/07/07 00:45:01;;;;;;;29.80;21.25;;;;;;;14.69;100.00;101564.22;2071136;28;24919;-67
2022/07/07 00:46:04;;;;;;;32.10;22.45;;;;;;;14.69;100.00;101561.50;2071153;28;20149;-66
2022/07/07 00:47:05;;;;;;;32.35;22.75;;;;;;;14.69;100.00;101562.38;2071368;28;34928;-67
2022/07/07 00:48:10;;;;;;;27.25;21.60;;;;;;;14.70;100.00;101563.28;2071310;28;29579;-65
2022/07/07 00:49:13;;;;;;;30.83;22.60;;;;;;;14.70;100.00;101555.22;2071679;28;20038;-67
2022/07/07 00:50:15;;;;;;;29.50;21.20;;;;;;;14.69;100.00;101551.59;2070163;28;33584;-67
2022/07/07 00:51:17;;;;;;;28.15;20.55;;;;;;;14.70;100.00;101555.22;2070571;28;37222;-66
2022/07/07 00:52:20;;;;;;;33.58;22.27;;;;;;;14.70;100.00;101549.81;2070826;28;20204;-67
2022/07/07 00:53:21;;;;;;;33.13;21.73;;;;;;;14.69;100.00;101553.44;2071323;28;29679;-66
2022/07/07 00:54:26;;;;;;;34.10;22.35;;;;;;;14.69;100.00;101545.34;2071771;28;20042;-66
2022/07/07 00:55:28;;;;;;;30.88;21.08;;;;;;;14.70;100.00;101548.00;2070817;28;23243;-66
2022/07/07 00:56:32;;;;;;;29.83;21.02;;;;;;;14.73;100.00;101554.22;2071665;28;20206;-66
2022/07/07 00:57:35;;;;;;;30.58;22.20;;;;;;;14.71;100.00;101546.19;2071424;28;24759;-65
2022/07/07 00:58:37;;;;;;;30.00;22.13;;;;;;;14.71;100.00;101548.88;2070892;28;40620;-66
2022/07/07 00:59:39;;;;;;;30.10;22.52;;;;;;;14.70;100.00;101537.22;2071698;28;20043;-66
2022/07/07 01:00:45;;;;;;;29.08;21.20;;;;;;;14.72;100.00;101534.47;2071090;28;20998;-66
2022/07/07 01:01:47;;;;;;;26.80;20.77;;;;;;;14.73;100.00;101543.44;2070471;28;35987;-66
2022/07/07 01:02:49;;;;;;;28.48;21.05;;;;;;;14.72;100.00;101531.78;2070797;28;20891;-66
2022/07/07 01:03:53;;;;;;;29.85;21.30;;;;;;;14.72;100.00;101536.31;2071256;28;20042;-66
2022/07/07 01:04:58;;;;;;;33.30;22.08;;;;;;;14.73;100.00;101533.53;2071005;28;21476;-66
2022/07/07 01:06:02;;;;;;;28.67;20.63;;;;;;;14.74;100.00;101524.53;2071302;28;20038;-66
2022/07/07 01:07:04;;;;;;;30.05;21.33;;;;;;;14.73;100.00;101533.53;2062333;28;27055;-67
2022/07/07 01:08:10;;;;;;;29.95;21.05;;;;;;;14.75;100.00;101533.50;2063533;28;20725;-66
2022/07/07 01:09:12;;;;;;;29.13;21.98;;;;;;;14.74;100.00;101529.91;2070851;28;26693;-66
2022/07/07 01:10:14;;;;;;;27.55;20.33;;;;;;;14.73;100.00;101528.13;2070931;28;20581;-67
2022/07/07 01:11:16;;;;;;;30.13;22.60;;;;;;;14.73;100.00;101520.06;2069817;28;33508;-66
2022/07/07 01:12:18;;;;;;;32.13;22.17;;;;;;;14.74;100.00;101518.25;2071025;28;32782;-66
2022/07/07 01:13:22;;;;;;;30.25;21.75;;;;;;;14.74;100.00;101511.03;2071556;28;21920;-66
2022/07/07 01:14:25;;;;;;;29.85;21.40;;;;;;;14.75;100.00;101509.22;2071422;28;20050;-66
2022/07/07 01:15:30;;;;;;;29.42;21.67;;;;;;;14.76;100.00;101517.28;2070529;28;29172;-64
2022/07/07 01:16:32;;;;;;;30.08;20.88;;;;;;;14.75;100.00;101510.13;2070640;28;20039;-66
2022/07/07 01:17:34;;;;;;;28.77;20.35;;;;;;;14.75;100.00;101507.44;2072303;28;24463;-66
2022/07/07 01:18:36;;;;;;;29.83;20.40;;;;;;;14.74;100.00;101505.66;2072700;28;23263;-66
2022/07/07 01:19:41;;;;;;;28.13;20.45;;;;;;;14.74;100.00;101505.66;2073119;28;20034;-66
2022/07/07 01:20:47;;;;;;;25.33;20.10;;;;;;;14.74;100.00;101502.09;2071179;28;38497;-67
2022/07/07 01:22:10;;;;;;;28.35;20.48;;;;;;;14.76;100.00;101500.22;2072698;28;25858;-66
2022/07/07 01:23:15;;;;;;;28.52;20.25;;;;;;;14.77;100.00;101501.97;2072042;28;20035;-66
2022/07/07 01:24:17;;;;;;;28.65;20.05;;;;;;;14.76;100.00;101497.53;2072637;28;20508;-66
2022/07/07 01:25:19;;;;;;;25.73;19.42;;;;;;;14.76;100.00;101495.69;2072532;28;23310;-66
2022/07/07 01:26:21;;;;;;;25.50;19.73;;;;;;;14.78;100.00;101498.34;2072240;28;30569;-66
2022/07/07 01:27:23;;;;;;;25.65;18.83;;;;;;;14.77;100.00;101499.28;2072542;28;24050;-66
2022/07/07 01:28:27;;;;;;;30.13;20.10;;;;;;;14.77;100.00;101492.09;2072951;28;20943;-66
2022/07/07 01:29:33;;;;;;;28.83;18.88;;;;;;;14.76;100.00;101490.31;2072140;28;32498;-66
2022/07/07 01:30:35;;;;;;;29.40;19.27;;;;;;;14.77;100.00;101491.19;2072627;28;20043;-67
2022/07/07 01:31:37;;;;;;;29.33;19.35;;;;;;;14.77;100.00;101484.00;2071961;28;40988;-67
2022/07/07 01:32:39;;;;;;;29.98;19.58;;;;;;;14.76;100.00;101484.06;2072870;28;23387;-66
2022/07/07 01:33:41;;;;;;;27.08;20.02;;;;;;;14.76;100.00;101484.91;2072443;28;20862;-66
2022/07/07 01:34:45;;;;;;;26.52;18.75;;;;;;;14.77;100.00;101485.78;2072332;28;38934;-66
2022/07/07 01:35:47;;;;;;;30.90;19.70;;;;;;;14.77;100.00;101486.69;2071586;28;20125;-67
2022/07/07 01:36:51;;;;;;;24.75;18.88;;;;;;;14.77;100.00;101480.41;2072297;28;24170;-67
2022/07/07 01:37:53;;;;;;;25.00;17.90;;;;;;;14.77;100.00;101484.00;2072543;28;20187;-67
2022/07/07 01:38:55;;;;;;;25.45;18.60;;;;;;;14.78;100.00;101479.47;2072791;28;20034;-67
2022/07/07 01:39:56;;;;;;;24.48;19.52;;;;;;;14.77;100.00;101478.63;2072413;28;29780;-67
2022/07/07 01:41:00;;;;;;;26.17;18.65;;;;;;;14.78;100.00;101477.66;2072652;28;23197;-67
2022/07/07 01:42:05;;;;;;;27.30;18.17;;;;;;;14.78;100.00;101472.28;2072973;28;20162;-65
2022/07/07 01:43:06;;;;;;;24.85;18.88;;;;;;;14.78;100.00;101468.69;2072884;28;21149;-67
2022/07/07 01:44:08;;;;;;;24.13;18.67;;;;;;;14.77;100.00;101465.13;2072668;28;20042;-66
2022/07/07 01:45:10;;;;;;;22.35;17.20;;;;;;;14.76;100.00;101468.75;2072268;28;21574;-67
2022/07/07 01:46:12;;;;;;;25.27;17.63;;;;;;;14.77;100.00;101461.53;2072102;28;21242;-65
2022/07/07 01:47:14;;;;;;;24.02;18.90;;;;;;;14.76;100.00;101463.34;2072227;28;35638;-68
2022/07/07 01:48:18;;;;;;;25.00;18.55;;;;;;;14.75;100.00;101469.69;2072658;28;22072;-67
2022/07/07 01:49:20;;;;;;;25.92;17.98;;;;;;;14.75;100.00;101469.69;2072094;28;24799;-67
2022/07/07 01:50:22;;;;;;;32.00;19.60;;;;;;;14.76;100.00;101463.34;2072399;28;26824;-67
2022/07/07 01:51:26;;;;;;;26.35;18.58;;;;;;;14.76;100.00;101457.09;2071087;28;27715;-67
2022/07/07 01:52:28;;;;;;;29.13;18.92;;;;;;;14.77;100.00;101466.94;2071585;28;28741;-67
2022/07/07 01:53:29;;;;;;;25.55;18.30;;;;;;;14.78;100.00;101455.22;2072265;28;36689;-67
2022/07/07 01:54:34;;;;;;;28.65;18.63;;;;;;;14.78;100.00;101466.00;2072383;28;27123;-67
2022/07/07 01:55:36;;;;;;;25.42;17.80;;;;;;;14.80;100.00;101459.63;2073020;28;20104;-67
2022/07/07 01:56:40;;;;;;;24.63;18.38;;;;;;;14.79;100.00;101452.47;2071350;28;30486;-67
2022/07/07 01:57:41;;;;;;;28.13;18.23;;;;;;;14.79;100.00;101452.47;2072389;28;28737;-67
2022/07/07 01:58:43;;;;;;;24.40;17.75;;;;;;;14.80;100.00;101454.22;2072487;28;20109;-67
2022/07/07 01:59:47;;;;;;;24.33;18.08;;;;;;;14.81;100.00;101455.13;2072857;28;20050;-67
2022/07/07 02:00:51;;;;;;;27.63;18.67;;;;;;;14.81;100.00;101453.31;2072211;28;22469;-67
2022/07/07 02:01:53;;;;;;;23.65;17.90;;;;;;;14.82;100.00;101449.69;2071865;28;36049;-68
2022/07/07 02:02:55;;;;;;;22.10;16.70;;;;;;;14.83;100.00;101442.47;2072815;28;20136;-67
2022/07/07 02:03:57;;;;;;;24.85;17.42;;;;;;;14.81;100.00;101445.22;2072046;28;26028;-66
2022/07/07 02:04:59;;;;;;;25.98;17.30;;;;;;;14.83;100.00;101442.47;2072396;28;24130;-66
2022/07/07 02:06:00;;;;;;;26.45;18.50;;;;;;;14.82;100.00;101436.22;2072609;28;26744;-67
2022/07/07 02:07:02;;;;;;;22.35;17.25;;;;;;;14.84;100.00;101438.84;2072519;28;22813;-66
2022/07/07 02:08:04;;;;;;;23.30;17.77;;;;;;;14.84;100.00;101439.75;2071481;28;36744;-66
2022/07/07 02:09:07;;;;;;;22.88;17.77;;;;;;;14.85;100.00;101437.91;2071950;28;39617;-66
2022/07/07 02:10:09;;;;;;;25.95;17.38;;;;;;;14.84;100.00;101426.25;2072389;28;20046;-66
2022/07/07 02:11:15;;;;;;;23.13;17.23;;;;;;;14.84;100.00;101436.13;2072555;28;20022;-66
2022/07/07 02:12:16;;;;;;;21.92;16.88;;;;;;;14.84;100.00;101430.75;2072359;28;25465;-66
2022/07/07 02:13:18;;;;;;;20.48;16.25;;;;;;;14.86;100.00;101421.69;2071524;28;20140;-66
2022/07/07 02:14:23;;;;;;;21.38;16.73;;;;;;;14.85;100.00;101428.00;2071093;28;36222;-66
2022/07/07 02:15:25;;;;;;;21.42;16.38;;;;;;;14.86;100.00;101426.22;2071070;28;29284;-66
2022/07/07 02:16:27;;;;;;;29.60;17.55;;;;;;;14.85;100.00;101424.44;2072742;28;20421;-66
2022/07/07 02:17:29;;;;;;;22.80;17.17;;;;;;;14.85;100.00;101430.69;2072168;28;30797;-66
2022/07/07 02:18:36;;;;;;;29.42;16.98;;;;;;;14.85;100.00;101425.31;2072646;28;20039;-65
2022/07/07 02:19:38;;;;;;;22.45;16.63;;;;;;;14.85;100.00;101424.44;2071483;28;38284;-66
2022/07/07 02:20:39;;;;;;;24.88;16.90;;;;;;;14.86;100.00;101420.81;2072481;28;24246;-66
2022/07/07 02:21:42;;;;;;;25.13;18.02;;;;;;;14.86;100.00;101427.09;2071631;28;21900;-66
2022/07/07 02:22:43;;;;;;;25.40;18.27;;;;;;;14.87;100.00;101422.56;2071689;28;34858;-66
2022/07/07 02:23:47;;;;;;;25.63;18.05;;;;;;;14.87;100.00;101426.13;2072820;28;20177;-66
2022/07/07 02:24:49;;;;;;;22.77;16.90;;;;;;;14.88;100.00;101427.91;2072549;28;22685;-66
2022/07/07 02:25:53;;;;;;;22.63;17.42;;;;;;;14.87;100.00;101418.06;2072745;28;20038;-66
2022/07/07 02:26:55;;;;;;;24.48;17.55;;;;;;;14.88;100.00;101419.81;2072292;28;20046;-66
2022/07/07 02:27:57;;;;;;;25.20;18.52;;;;;;;14.88;100.00;101408.16;2072117;28;26870;-65
2022/07/07 02:28:58;;;;;;;23.75;17.77;;;;;;;14.89;100.00;101410.81;2072231;28;38062;-65
2022/07/07 02:30:00;;;;;;;20.73;16.65;;;;;;;14.89;100.00;101418.91;2072167;28;21183;-65
2022/07/07 02:31:02;;;;;;;19.63;17.58;;;;;;;14.90;100.00;101422.47;2072587;28;20042;-65
2022/07/07 02:32:05;;;;;;;24.40;17.38;;;;;;;14.91;100.00;101423.34;2070888;28;23041;-65
2022/07/07 02:33:06;;;;;;;22.55;16.90;;;;;;;14.92;100.00;101414.34;2072423;28;28252;-63
2022/07/07 02:34:08;;;;;;;20.67;16.58;;;;;;;14.92;100.00;101411.66;2072414;28;20038;-64
2022/07/07 02:35:10;;;;;;;19.73;15.88;;;;;;;14.92;100.00;101417.03;2071988;28;23107;-64
2022/07/07 02:36:14;;;;;;;23.55;16.88;;;;;;;14.92;100.00;101414.34;2071485;28;36377;-65
2022/07/07 02:37:16;;;;;;;24.73;17.42;;;;;;;14.93;100.00;101413.38;2064233;28;20047;-64
2022/07/07 02:38:22;;;;;;;26.63;19.02;;;;;;;14.93;100.00;101408.00;2063695;28;20094;-64
2022/07/07 02:39:24;;;;;;;27.17;18.35;;;;;;;14.92;100.00;101411.66;2063859;28;23582;-64
2022/07/07 02:40:26;;;;;;;27.80;18.85;;;;;;;14.90;100.00;101411.69;2064003;28;20051;-65
2022/07/07 02:41:27;;;;;;;24.25;18.70;;;;;;;14.91;100.00;101407.16;2063814;28;36865;-65
2022/07/07 02:42:29;;;;;;;26.40;18.80;;;;;;;14.88;100.00;101403.66;2072218;28;20923;-65
2022/07/07 02:43:32;;;;;;;25.52;19.90;;;;;;;14.89;100.00;101408.13;2072270;28;24119;-65
2022/07/07 02:44:34;;;;;;;23.45;19.42;;;;;;;14.88;100.00;101403.66;2071643;28;37357;-64
2022/07/07 02:45:35;;;;;;;23.48;19.27;;;;;;;14.89;100.00;101399.13;2071257;28;35752;-65
2022/07/07 02:46:37;;;;;;;25.10;19.23;;;;;;;14.88;100.00;101402.78;2071554;28;21864;-64
2022/07/07 02:47:39;;;;;;;23.80;18.20;;;;;;;14.87;100.00;101401.88;2072065;28;36228;-63
2022/07/07 02:48:43;;;;;;;23.33;18.52;;;;;;;14.87;100.00;101396.47;2071465;28;26069;-65
2022/07/07 02:49:48;;;;;;;29.00;19.95;;;;;;;14.88;100.00;101392.88;2070024;28;38854;-65
2022/07/07 02:50:51;;;;;;;21.42;18.50;;;;;;;14.89;100.00;101391.94;2071363;28;20184;-64
2022/07/07 02:51:52;;;;;;;22.55;17.52;;;;;;;14.91;100.00;101394.56;2071676;28;27142;-65
2022/07/07 02:52:55;;;;;;;22.52;18.40;;;;;;;14.90;100.00;101392.81;2071531;28;25525;-65
2022/07/07 02:53:57;;;;;;;24.98;19.65;;;;;;;14.89;100.00;101391.94;2072447;28;22186;-65
2022/07/07 02:54:59;;;;;;;24.98;18.88;;;;;;;14.90;100.00;101387.44;2071945;28;26619;-65
2022/07/07 02:56:01;;;;;;;28.58;20.08;;;;;;;14.91;100.00;101396.38;2071872;28;29597;-65
2022/07/07 02:57:03;;;;;;;24.52;18.92;;;;;;;14.91;100.00;101393.69;2072172;28;20045;-65
2022/07/07 02:58:07;;;;;;;24.77;19.02;;;;;;;14.91;100.00;101396.38;2071887;28;20042;-65
2022/07/07 02:59:11;;;;;;;22.13;18.55;;;;;;;14.91;100.00;101391.88;2071710;28;28605;-65
2022/07/07 03:00:14;;;;;;;22.52;17.88;;;;;;;14.92;100.00;101395.47;2072184;28;21301;-64
2022/07/07 03:01:16;;;;;;;21.42;18.23;;;;;;;14.93;100.00;101383.72;2071191;28;36292;-63
2022/07/07 03:02:18;;;;;;;21.20;17.55;;;;;;;14.92;100.00;101392.78;2072184;28;20046;-63
2022/07/07 03:03:19;;;;;;;21.52;16.85;;;;;;;14.93;100.00;101394.50;2070924;28;39538;-64
2022/07/07 03:04:21;;;;;;;20.73;17.02;;;;;;;14.92;100.00;101395.47;2072222;28;25794;-63
2022/07/07 03:05:23;;;;;;;22.33;17.95;;;;;;;14.93;100.00;101389.13;2072055;28;20712;-64
2022/07/07 03:06:25;;;;;;;19.27;16.15;;;;;;;14.94;100.00;101388.19;2072144;28;21040;-64
2022/07/07 03:07:27;;;;;;;17.83;15.20;;;;;;;14.95;100.00;101390.84;2071947;28;21410;-64
2022/07/07 03:08:28;;;;;;;17.65;15.75;;;;;;;14.94;100.00;101393.59;2071878;28;32094;-65
2022/07/07 03:09:32;;;;;;;19.98;16.30;;;;;;;14.94;100.00;101397.16;2071423;28;28806;-64
2022/07/07 03:10:34;;;;;;;18.20;14.32;;;;;;;14.95;100.00;101398.03;2072322;28;23554;-64
2022/07/07 03:11:36;;;;;;;18.77;14.73;;;;;;;14.95;100.00;101393.56;2071637;28;38591;-64
2022/07/07 03:12:38;;;;;;;14.25;12.68;;;;;;;14.94;100.00;101396.28;2071564;28;36714;-64
2022/07/07 03:13:39;;;;;;;16.95;13.52;;;;;;;14.95;100.00;101396.25;2071972;28;21141;-65
2022/07/07 03:14:41;;;;;;;15.50;13.20;;;;;;;14.95;100.00;101396.25;2071809;28;21391;-64
2022/07/07 03:15:47;;;;;;;17.60;12.95;;;;;;;14.95;100.00;101392.66;2072011;28;20038;-65
2022/07/07 03:16:49;;;;;;;16.52;13.30;;;;;;;14.95;100.00;101398.03;2071277;28;38594;-65
2022/07/07 03:17:53;;;;;;;17.25;13.63;;;;;;;14.95;100.00;101393.56;2071254;28;26168;-64
2022/07/07 03:18:54;;;;;;;14.32;12.82;;;;;;;14.97;100.00;101390.81;2071914;28;27778;-65
2022/07/07 03:19:58;;;;;;;16.70;13.43;;;;;;;14.97;100.00;101393.50;2071913;28;25507;-64
2022/07/07 03:21:00;;;;;;;15.38;13.10;;;;;;;14.98;100.00;101397.94;2071434;28;20042;-64
2022/07/07 03:22:02;;;;;;;16.17;13.13;;;;;;;14.98;100.00;101395.25;2071860;28;27447;-65
2022/07/07 03:23:05;;;;;;;14.90;12.73;;;;;;;14.97;100.00;101391.69;2071848;28;30364;-65
2022/07/07 03:24:07;;;;;;;13.15;11.57;;;;;;;14.98;100.00;101393.41;2071781;28;26272;-65
2022/07/07 03:25:14;;;;;;;16.13;12.50;;;;;;;14.97;100.00;101388.97;2072467;28;20046;-64
2022/07/07 03:26:16;;;;;;;15.27;12.13;;;;;;;14.99;100.00;101386.25;2071319;28;35781;-64
2022/07/07 03:27:18;;;;;;;14.98;11.60;;;;;;;14.99;100.00;101386.25;2071760;28;20856;-64
2022/07/07 03:28:20;;;;;;;15.07;10.77;;;;;;;14.97;100.00;101380.03;2071438;28;23973;-64
2022/07/07 03:29:22;;;;;;;13.00;10.75;;;;;;;15.00;100.00;101382.59;2072127;28;21983;-64
2022/07/07 03:30:24;;;;;;;11.90;10.60;;;;;;;15.00;100.00;101382.59;2071823;28;25270;-65
2022/07/07 03:31:25;;;;;;;12.50;9.90;;;;;;;15.00;100.00;101383.50;2072243;28;27064;-65
2022/07/07 03:32:32;;;;;;;12.63;10.30;;;;;;;14.99;100.00;101388.94;2071364;28;21898;-65
2022/07/07 03:33:34;;;;;;;12.88;8.82;;;;;;;15.01;100.00;101389.75;2071948;28;20041;-64
2022/07/07 03:34:36;;;;;;;12.10;8.85;;;;;;;15.00;100.00;101382.59;2071786;28;25981;-65
2022/07/07 03:35:39;;;;;;;10.20;9.20;;;;;;;15.01;100.00;101385.25;2072211;28;21991;-65
2022/07/07 03:36:43;;;;;;;9.48;8.10;;;;;;;15.00;100.00;101387.97;2071890;28;23050;-65
2022/07/07 03:37:45;;;;;;;9.48;8.20;;;;;;;15.00;100.00;101385.28;2071569;28;26846;-65
2022/07/07 03:38:46;;;;;;;11.57;8.75;;;;;;;15.00;100.00;101385.28;2071680;28;21709;-63
2022/07/07 03:39:48;;;;;;;10.68;8.02;;;;;;;15.00;100.00;101383.50;2071323;28;25681;-65
2022/07/07 03:40:50;;;;;;;11.77;7.90;;;;;;;15.01;100.00;101376.28;2070978;28;37354;-65
2022/07/07 03:41:52;;;;;;;10.25;8.60;;;;;;;15.02;100.00;101383.41;2071698;28;33994;-63
2022/07/07 03:42:54;;;;;;;13.00;8.18;;;;;;;15.02;100.00;101375.31;2071034;28;27891;-64
2022/07/07 03:43:55;;;;;;;10.25;7.70;;;;;;;15.01;100.00;101381.66;2071827;28;33509;-64
2022/07/07 03:44:57;;;;;;;10.35;8.13;;;;;;;15.02;100.00;101378.00;2089502;22;20899;-66
2022/07/07 03:45:59;;;;;;;12.02;8.52;;;;;;;15.03;100.00;101379.78;2090791;28;20252;-67
2022/07/07 03:47:02;;;;;;;11.07;8.00;;;;;;;15.03;100.00;101379.78;2088009;28;28429;-67
2022/07/07 03:48:05;;;;;;;10.68;7.75;;;;;;;15.03;100.00;101377.09;2088454;28;22299;-65
2022/07/07 03:49:07;;;;;;;9.48;8.32;;;;;;;15.02;100.00;101372.63;2088390;28;20909;-66
2022/07/07 03:50:09;;;;;;;10.00;7.40;;;;;;;15.02;100.00;101373.53;2088305;28;23911;-66
2022/07/07 03:51:11;;;;;;;10.18;8.15;;;;;;;15.03;100.00;101369.88;2088279;28;26274;-66
2022/07/07 03:52:13;;;;;;;11.75;8.85;;;;;;;15.04;100.00;101370.78;2087542;28;24180;-66
2022/07/07 03:53:14;;;;;;;12.05;8.43;;;;;;;15.04;100.00;101371.66;2088252;28;20645;-66
2022/07/07 03:54:16;;;;;;;10.07;7.88;;;;;;;15.04;100.00;101368.97;2089299;28;20870;-66
2022/07/07 03:55:20;;;;;;;10.63;9.13;;;;;;;15.05;100.00;101372.53;2087853;28;33628;-66
2022/07/07 03:56:22;;;;;;;10.05;7.15;;;;;;;15.06;100.00;101371.59;2079175;28;33647;-67
2022/07/07 03:57:24;;;;;;;12.70;7.70;;;;;;;15.06;100.00;101374.31;2079447;28;20956;-67
2022/07/07 03:58:26;;;;;;;9.07;7.85;;;;;;;15.07;100.00;101368.88;2087508;28;34559;-67
2022/07/07 03:59:28;;;;;;;12.48;7.68;;;;;;;15.07;100.00;101370.66;2088545;28;20050;-67
2022/07/07 04:00:30;;;;;;;12.70;7.85;;;;;;;15.07;100.00;101371.56;2088593;28;20030;-66
2022/07/07 04:01:32;;;;;;;11.18;7.18;;;;;;;15.07;100.00;101366.16;2088037;28;26915;-67
2022/07/07 04:02:35;;;;;;;8.50;7.35;;;;;;;15.10;100.00;101358.91;2078816;28;20038;-67
2022/07/07 04:03:37;;;;;;;9.65;7.18;;;;;;;15.10;100.00;101354.38;2078991;28;32169;-67
2022/07/07 04:04:39;;;;;;;7.75;6.57;;;;;;;15.10;100.00;101357.06;2080213;28;20164;-67
2022/07/07 04:05:41;;;;;;;8.18;6.80;;;;;;;15.11;100.00;101355.25;2088334;28;25323;-67
2022/07/07 04:06:43;;;;;;;8.60;6.47;;;;;;;15.11;100.00;101350.75;2087498;28;38704;-68
2022/07/07 04:07:45;;;;;;;8.30;7.15;;;;;;;15.11;100.00;101358.84;2087050;28;20190;-68
2022/07/07 04:08:47;;;;;;;8.40;5.65;;;;;;;15.12;100.00;101352.50;2088031;28;27291;-68
2022/07/07 04:09:49;;;;;;;9.25;5.80;;;;;;;15.13;100.00;101353.38;2088155;28;20045;-67
2022/07/07 04:10:51;;;;;;;8.68;5.88;;;;;;;15.14;100.00;101350.63;2088060;28;20891;-68
2022/07/07 04:11:53;;;;;;;7.93;5.63;;;;;;;15.16;100.00;101350.56;2088120;28;25649;-68
2022/07/07 04:12:56;;;;;;;6.97;6.38;;;;;;;15.16;100.00;101347.88;2087144;28;25300;-68
2022/07/07 04:13:58;;;;;;;8.02;5.57;;;;;;;15.17;100.00;101349.66;2088426;28;20107;-68
2022/07/07 04:15:06;;;;;;;8.57;6.13;;;;;;;15.16;100.00;101348.75;2079826;28;20985;-66
2022/07/07 04:16:08;;;;;;;5.70;5.20;;;;;;;15.18;100.00;101352.31;2090568;28;21497;-68
2022/07/07 04:17:11;;;;;;;9.15;5.50;;;;;;;15.18;100.00;101351.41;2087030;28;39014;-67
2022/07/07 04:18:15;;;;;;;6.28;5.30;;;;;;;15.18;100.00;101346.00;2087588;28;20662;-67
2022/07/07 04:19:17;;;;;;;6.40;4.95;;;;;;;15.17;100.00;101347.81;2088060;28;23445;-68
2022/07/07 04:20:19;;;;;;;6.15;5.55;;;;;;;15.18;100.00;101351.41;2087887;28;28171;-68
2022/07/07 04:21:20;;;;;;;6.75;5.35;;;;;;;15.18;100.00;101352.31;2088256;28;21283;-68
2022/07/07 04:22:22;;;;;;;6.95;4.78;;;;;;;15.18;100.00;101355.00;2087962;28;20079;-68
2022/07/07 04:23:24;;;;;;;7.07;5.50;;;;;;;15.17;100.00;101344.25;2087380;28;39749;-67
2022/07/07 04:24:27;;;;;;;6.88;4.97;;;;;;;15.17;100.00;101339.72;2088308;28;20045;-68
2022/07/07 04:25:28;;;;;;;5.68;4.78;;;;;;;15.17;100.00;101352.34;2088058;28;24526;-68
2022/07/07 04:26:30;;;;;;;8.15;4.93;;;;;;;15.17;100.00;101355.06;2088190;28;20045;-68
2022/07/07 04:27:32;;;;;;;6.22;4.32;;;;;;;15.16;100.00;101346.06;2088370;28;20038;-68
2022/07/07 04:28:36;;;;;;;7.35;4.85;;;;;;;15.17;100.00;101347.81;2087253;28;20042;-68
2022/07/07 04:29:40;;;;;;;5.15;3.90;;;;;;;15.17;100.00;101345.13;2088285;28;20814;-68
2022/07/07 04:30:43;;;;;;;6.45;5.05;;;;;;;15.19;100.00;101351.34;2088448;28;20049;-68
2022/07/07 04:31:45;;;;;;;7.55;4.95;;;;;;;15.19;100.00;101348.66;2088313;28;20042;-68
2022/07/07 04:32:47;;;;;;;5.30;4.57;;;;;;;15.20;100.00;101350.44;2087743;28;32304;-68
2022/07/07 04:33:48;;;;;;;5.47;4.47;;;;;;;15.22;100.00;101353.06;2087761;28;37675;-68
2022/07/07 04:34:50;;;;;;;7.53;4.63;;;;;;;15.23;100.00;101350.28;2087433;28;20042;-67
2022/07/07 04:35:52;;;;;;;7.45;4.18;;;;;;;15.25;100.00;101351.16;2088143;28;20038;-68
2022/07/07 04:36:54;;;;;;;5.18;4.22;;;;;;;15.30;100.00;101347.41;2087622;28;20229;-68
2022/07/07 04:37:56;;;;;;;6.13;4.05;;;;;;;15.26;100.00;101343.91;2086886;28;32243;-68
2022/07/07 04:38:57;;;;;;;5.88;3.58;;;;;;;15.30;100.00;101350.09;2086730;28;29334;-68
2022/07/07 04:40:02;;;;;;;6.68;3.10;;;;;;;15.33;100.00;101352.69;2087668;28;21834;-68
2022/07/07 04:41:05;;;;;;;3.63;2.90;;;;;;;15.36;100.00;101349.84;2086936;28;20164;-67
2022/07/07 04:42:07;;;;;;;5.18;2.50;;;;;;;15.38;100.00;101354.28;2087250;28;30595;-68